Time;durP1;ratioP1;P1;durP2;ratioP2;P2;SDS_P1;SDS_P2;PMS_P1;PMS_P2;Temp;Humidity;BMP_temperature;BMP_pressure;BME280_temperature;BME280_humidity;BME280_pressure;Samples;Min_cycle;Max_cycle;Signal;HPM_P1;HPM_P2
2023/03/09 00:01:32;;;;;;;;;2.00;1.00;;;;;13.90;100.00;99244.59;5037634;28;45216;-82
2023/03/09 00:03:58;;;;;;;;;3.00;1.33;;;;;13.86;100.00;99247.97;5003921;28;44655;-83
2023/03/09 00:06:24;;;;;;;;;1.33;1.00;;;;;13.90;100.00;99244.59;5002623;28;45430;-82
2023/03/09 00:08:50;;;;;;;;;1.00;1.00;;;;;13.53;100.00;99254.16;5016596;28;45520;-82
2023/03/09 00:11:17;;;;;;;;;4.00;1.00;;;;;13.86;100.00;99272.53;5002046;28;44858;-83
2023/03/09 00:13:44;;;;;;;;;1.33;1.00;;;;;13.92;100.00;99264.38;5014472;28;45172;-82
2023/03/09 00:16:12;;;;;;;;;1.00;0.00;;;;;13.67;100.00;99282.31;5035121;28;45405;-80
2023/03/09 00:18:38;;;;;;;;;1.00;1.00;;;;;13.85;100.00;99285.34;5001154;28;45376;-80
2023/03/09 00:21:04;;;;;;;;;1.00;1.00;;;;;13.91;100.00;99289.13;5004465;28;44735;-80
2023/03/09 00:23:30;;;;;;;;;0.00;0.00;;;;;13.88;100.00;99282.19;5004609;28;45306;-81
2023/03/09 00:25:55;;;;;;;;;1.00;1.00;;;;;13.93;100.00;99293.34;5003174;28;45593;-80
2023/03/09 00:28:20;;;;;;;;;0.33;0.33;;;;;13.75;100.00;99290.34;5012282;28;45269;-80
2023/03/09 00:30:46;;;;;;;;;2.33;0.33;;;;;13.86;100.00;99289.75;5001034;28;44710;-81
2023/03/09 00:33:11;;;;;;;;;3.33;2.00;;;;;13.72;100.00;99301.69;4995679;28;45415;-81
2023/03/09 00:35:37;;;;;;;;;2.00;1.00;;;;;13.68;100.00;99305.84;4999577;28;45330;-80
2023/03/09 00:38:03;;;;;;;;;1.00;1.00;;;;;13.77;100.00;99311.97;4995328;28;45330;-81
2023/03/09 00:40:29;;;;;;;;;1.00;0.00;;;;;13.68;100.00;99322.22;5002039;28;44714;-81
2023/03/09 00:42:54;;;;;;;;;2.67;1.00;;;;;13.68;100.00;99297.66;4998514;28;45216;-81
2023/03/09 00:45:22;;;;;;;;;0.33;0.33;;;;;13.74;100.00;99309.63;4998255;28;45399;-81
2023/03/09 00:47:48;;;;;;;;;2.00;0.67;;;;;13.62;100.00;99314.84;4997544;28;45418;-81
2023/03/09 00:50:13;;;;;;;;;2.00;1.00;;;;;13.69;100.00;99323.06;4998479;28;45352;-81
2023/03/09 00:52:38;;;;;;;;;0.67;0.67;;;;;13.51;100.00;99329.94;4992966;28;45552;-81
2023/03/09 00:55:04;;;;;;;;;1.00;1.00;;;;;13.50;100.00;99330.13;4995547;28;45490;-81
2023/03/09 00:57:30;;;;;;;;;3.00;2.67;;;;;13.61;100.00;99340.44;4991563;28;45901;-81
2023/03/09 00:59:55;;;;;;;;;5.00;1.00;;;;;13.62;100.00;99332.06;4997168;28;45439;-80
2023/03/09 01:02:22;;;;;;;;;2.00;0.67;;;;;13.62;100.00;99344.88;4992811;28;45414;-80
2023/03/09 01:04:48;;;;;;;;;3.00;1.67;;;;;13.51;100.00;99343.56;5000999;28;48624;-80
2023/03/09 01:07:14;;;;;;;;;3.00;2.00;;;;;13.44;100.00;99337.19;5008733;28;45319;-81
2023/03/09 01:09:39;;;;;;;;;2.00;2.00;;;;;13.51;100.00;99349.03;4994156;28;45270;-81
2023/03/09 01:12:06;;;;;;;;;3.00;1.67;;;;;13.51;100.00;99365.41;5004562;28;45253;-80
2023/03/09 01:14:31;;;;;;;;;2.33;1.00;;;;;13.62;100.00;99361.25;4987383;28;49073;-80
2023/03/09 01:16:57;;;;;;;;;1.67;1.33;;;;;13.53;100.00;99344.19;5038690;28;45409;-80
2023/03/09 01:19:23;;;;;;;;;4.00;2.33;;;;;13.55;100.00;99363.09;5019970;28;45585;-80
2023/03/09 01:21:48;;;;;;;;;1.67;0.00;;;;;13.48;100.00;99348.56;5000789;28;45521;-80
2023/03/09 01:24:13;;;;;;;;;5.00;2.00;;;;;13.43;100.00;99356.53;5009833;28;45371;-80
2023/03/09 01:26:39;;;;;;;;;2.00;2.00;;;;;13.40;100.00;99359.63;5030803;28;45251;-80
2023/03/09 01:29:04;;;;;;;;;1.00;1.00;;;;;13.47;100.00;99360.53;5000596;28;45274;-81
2023/03/09 01:31:30;;;;;;;;;3.00;1.00;;;;;13.49;100.00;99369.38;5017151;28;45336;-81
2023/03/09 01:33:55;;;;;;;;;1.33;0.33;;;;;13.30;100.00;99379.09;5013336;28;46490;-81
2023/03/09 01:36:20;;;;;;;;;2.00;1.00;;;;;13.30;100.00;99380.97;5001353;28;44888;-81
2023/03/09 01:38:46;;;;;;;;;4.00;1.33;;;;;13.43;100.00;99394.72;5001895;28;45978;-80
2023/03/09 01:41:14;;;;;;;;;4.00;1.00;;;;;13.46;100.00;99402.50;5006360;28;45343;-80
2023/03/09 01:43:41;;;;;;;;;1.67;1.00;;;;;13.27;100.00;99395.03;5017563;28;46384;-81
2023/03/09 01:46:25;;;;;;;;;3.00;2.00;;;;;13.41;100.00;99405.81;5000055;28;45367;-81
2023/03/09 01:49:13;;;;;;;;;0.33;0.33;;;;;13.45;100.00;99406.25;5000944;28;45266;-81
2023/03/09 01:52:13;;;;;;;;;1.00;1.00;;;;;13.45;100.00;99403.53;5028989;28;45061;-81
2023/03/09 01:54:50;;;;;;;;;1.00;1.00;;;;;13.47;100.00;99409.63;5007031;28;45331;-81
2023/03/09 01:57:32;;;;;;;;;2.00;0.00;;;;;13.50;100.00;99406.53;4991567;28;45224;-81
2023/03/09 02:00:05;;;;;;;;;0.33;0.00;;;;;13.47;100.00;99412.38;4998581;28;44806;-81
2023/03/09 02:02:35;;;;;;;;;1.00;1.00;;;;;13.59;100.00;99405.31;4996032;28;45376;-80
2023/03/09 02:05:04;;;;;;;;;1.00;1.00;;;;;13.56;100.00;99395.66;4997996;28;45275;-81
2023/03/09 02:07:34;;;;;;;;;2.00;1.00;;;;;13.64;100.00;99411.03;4993794;28;45268;-80
2023/03/09 02:10:26;;;;;;;;;1.00;1.00;;;;;13.60;100.00;99393.34;4998115;28;45236;-80
2023/03/09 02:12:57;;;;;;;;;2.33;1.33;;;;;13.71;100.00;99417.38;5009582;28;45543;-82
2023/03/09 02:15:24;;;;;;;;;4.00;2.00;;;;;13.66;100.00;99408.94;4998939;28;45742;-81
2023/03/09 02:17:50;;;;;;;;;3.00;3.00;;;;;13.81;100.00;99425.16;5010006;28;45487;-81
2023/03/09 02:20:18;;;;;;;;;3.33;0.67;;;;;13.81;100.00;99422.44;4995118;28;45485;-80
2023/03/09 02:22:47;;;;;;;;;3.00;1.33;;;;;13.83;100.00;99412.16;5001807;28;45225;-81
2023/03/09 02:25:26;;;;;;;;;1.00;1.00;;;;;13.73;100.00;99434.38;5010206;28;45632;-81
2023/03/09 02:27:52;;;;;;;;;1.67;1.67;;;;;13.68;100.00;99428.66;5007839;28;45508;-81
2023/03/09 02:30:17;;;;;;;;;3.33;1.33;;;;;13.81;100.00;99428.75;4994040;28;46043;-81
2023/03/09 02:32:43;;;;;;;;;2.00;2.00;;;;;13.85;100.00;99448.31;5024947;28;45316;-80
2023/03/09 02:35:09;;;;;;;;;2.00;1.00;;;;;13.85;100.00;99429.19;4994340;28;47069;-81
2023/03/09 02:37:38;;;;;;;;;3.33;2.00;;;;;13.83;100.00;99439.47;4995866;28;45434;-81
2023/03/09 02:40:21;;;;;;;;;4.00;1.33;;;;;13.86;100.00;99452.72;5002276;28;45286;-80
2023/03/09 02:42:47;;;;;;;;;1.00;1.00;;;;;13.85;100.00;99440.13;4995143;28;45150;-81
2023/03/09 02:45:17;;;;;;;;;4.00;1.00;;;;;13.85;100.00;99462.81;4991350;28;46256;-81
2023/03/09 02:47:43;;;;;;;;;1.00;1.00;;;;;13.93;100.00;99445.41;5012523;28;45339;-81
2023/03/09 02:50:09;;;;;;;;;4.00;1.00;;;;;13.76;100.00;99458.53;4989137;28;45371;-81
2023/03/09 02:52:35;;;;;;;;;4.00;2.67;;;;;13.76;100.00;99464.00;4996669;28;45191;-81
2023/03/09 02:55:01;;;;;;;;;3.33;2.67;;;;;13.92;100.00;99471.03;4992019;28;46572;-81
2023/03/09 02:57:26;;;;;;;;;4.67;2.00;;;;;14.00;100.00;99449.88;5000342;28;45398;-81
2023/03/09 02:59:52;;;;;;;;;4.00;1.00;;;;;13.97;100.00;99458.44;4991076;28;45236;-81
2023/03/09 03:02:17;;;;;;;;;3.00;1.33;;;;;14.13;100.00;99465.47;4986489;28;45275;-80
2023/03/09 03:04:43;;;;;;;;;2.67;2.00;;;;;14.10;100.00;99467.78;4993749;28;46326;-80
2023/03/09 03:07:08;;;;;;;;;1.00;0.33;;;;;14.04;100.00;99451.13;4989797;28;45697;-81
2023/03/09 03:09:33;;;;;;;;;6.67;2.67;;;;;14.01;100.00;99480.75;4996514;28;45498;-81
2023/03/09 03:11:59;;;;;;;;;5.67;1.00;;;;;14.07;100.00;99476.38;4990680;28;45546;-81
2023/03/09 03:14:24;;;;;;;;;3.67;2.00;;;;;14.14;100.00;99460.84;4990734;28;45443;-81
2023/03/09 03:16:49;;;;;;;;;5.00;2.00;;;;;14.13;100.00;99467.34;4992909;28;45710;-81
2023/03/09 03:19:14;;;;;;;;;5.33;4.00;;;;;13.80;100.00;99462.56;4999695;28;45399;-81
2023/03/09 03:21:40;;;;;;;;;2.67;2.67;;;;;14.05;100.00;99487.50;4986294;28;45397;-81
2023/03/09 03:24:05;;;;;;;;;4.00;2.00;;;;;14.19;100.00;99474.75;4991639;28;45343;-81
2023/03/09 03:26:31;;;;;;;;;1.67;1.00;;;;;14.16;100.00;99488.81;4992113;28;46328;-81
2023/03/09 03:28:56;;;;;;;;;3.00;2.00;;;;;14.25;100.00;99473.91;4988280;28;45332;-81
2023/03/09 03:31:21;;;;;;;;;3.00;2.67;;;;;14.16;100.00;99484.19;5018790;28;45671;-80
2023/03/09 03:33:47;;;;;;;;;4.67;2.00;;;;;14.13;100.00;99467.34;4987607;28;45491;-81
2023/03/09 03:36:13;;;;;;;;;5.00;2.00;;;;;14.17;100.00;99485.03;4985067;28;45502;-82
2023/03/09 03:38:38;;;;;;;;;1.33;1.00;;;;;14.25;100.00;99501.25;4994522;28;45212;-81
2023/03/09 03:41:04;;;;;;;;;7.00;1.67;;;;;14.24;100.00;99515.97;4992971;28;45431;-82
2023/03/09 03:43:29;;;;;;;;;4.33;3.33;;;;;14.18;100.00;99476.63;4993045;28;46966;-81
2023/03/09 03:45:54;;;;;;;;;3.67;2.00;;;;;14.22;100.00;99488.84;4994125;28;45485;-81
2023/03/09 03:48:20;;;;;;;;;4.67;1.67;;;;;14.32;100.00;99515.78;4992922;28;45361;-82
2023/03/09 03:50:45;;;;;;;;;3.00;2.00;;;;;14.33;100.00;99506.53;4988796;28;45395;-81
2023/03/09 03:53:10;;;;;;;;;6.00;3.00;;;;;14.26;100.00;99519.31;4999937;28;45511;-82
2023/03/09 03:55:36;;;;;;;;;7.33;3.33;;;;;14.17;100.00;99509.63;4989318;28;45398;-81
2023/03/09 03:58:01;;;;;;;;;1.67;1.67;;;;;14.34;100.00;99525.47;5001574;28;45245;-82
2023/03/09 04:00:27;;;;;;;;;4.33;2.67;;;;;14.37;100.00;99518.78;4987345;28;45255;-82
2023/03/09 04:02:52;;;;;;;;;1.67;1.00;;;;;14.43;100.00;99522.59;4987564;28;45368;-81
2023/03/09 04:05:18;;;;;;;;;3.33;2.00;;;;;14.35;100.00;99538.09;4986328;28;45475;-81
2023/03/09 04:07:43;;;;;;;;;6.33;2.00;;;;;14.24;100.00;99507.78;4982805;28;45427;-81
2023/03/09 04:10:09;;;;;;;;;5.67;4.00;;;;;14.17;100.00;99528.75;4982270;28;45369;-81
2023/03/09 04:12:34;;;;;;;;;4.33;2.00;;;;;14.12;100.00;99537.53;4986359;28;45759;-81
2023/03/09 04:15:00;;;;;;;;;4.67;2.00;;;;;14.25;100.00;99542.22;4997631;28;45366;-81
2023/03/09 04:17:25;;;;;;;;;7.67;3.00;;;;;14.12;100.00;99531.22;4984620;28;46493;-81
2023/03/09 04:19:50;;;;;;;;;3.33;3.00;;;;;14.20;100.00;99542.00;4987814;28;45390;-81
2023/03/09 04:22:16;;;;;;;;;4.33;2.00;;;;;14.14;100.00;99551.84;5000802;28;46965;-81
2023/03/09 04:24:41;;;;;;;;;3.67;3.00;;;;;14.14;100.00;99551.00;4985961;28;45332;-81
2023/03/09 04:27:06;;;;;;;;;4.00;3.00;;;;;14.22;100.00;99543.50;4985306;28;45539;-82
2023/03/09 04:29:32;;;;;;;;;3.33;2.00;;;;;14.32;100.00;99551.31;5017254;28;45453;-81
2023/03/09 04:31:57;;;;;;;;;4.00;2.33;;;;;14.21;100.00;99547.25;4985585;28;47174;-81
2023/03/09 04:34:22;;;;;;;;;4.67;3.00;;;;;14.16;100.00;99547.03;4988120;28;45273;-81
2023/03/09 04:36:48;;;;;;;;;5.67;2.00;;;;;14.23;100.00;99544.34;4984107;28;46328;-81
2023/03/09 04:39:13;;;;;;;;;5.67;3.00;;;;;14.34;100.00;99563.72;5001705;28;45332;-82
2023/03/09 04:41:39;;;;;;;;;3.33;3.00;;;;;14.39;100.00;99555.78;4986541;28;45362;-82
2023/03/09 04:44:04;;;;;;;;;2.00;2.00;;;;;14.37;100.00;99570.69;4986055;28;45332;-81
2023/03/09 04:46:30;;;;;;;;;5.00;4.00;;;;;14.34;100.00;99566.47;4986140;28;45376;-82
2023/03/09 04:48:55;;;;;;;;;4.67;2.00;;;;;14.22;100.00;99580.88;4985669;28;45422;-81
2023/03/09 04:51:21;;;;;;;;;4.00;2.67;;;;;14.27;100.00;99589.31;4987808;28;45508;-81
2023/03/09 04:53:46;;;;;;;;;2.00;1.00;;;;;14.36;100.00;99577.19;5011774;28;45400;-81
2023/03/09 04:56:12;;;;;;;;;2.67;2.00;;;;;14.38;100.00;99577.88;4986094;28;45526;-76
2023/03/09 04:58:37;;;;;;;;;3.67;2.00;;;;;14.35;100.00;99584.53;4988963;28;45249;-81
2023/03/09 05:01:02;;;;;;;;;3.00;2.00;;;;;14.40;100.00;99586.69;4991377;28;46287;-83
2023/03/09 05:03:28;;;;;;;;;4.33;2.00;;;;;14.38;100.00;99578.72;4989420;28;45435;-82
2023/03/09 05:05:54;;;;;;;;;8.33;6.00;;;;;14.35;100.00;99591.91;4993994;28;45438;-80
2023/03/09 05:08:19;;;;;;;;;2.00;2.00;;;;;14.30;100.00;99594.38;4990529;28;45302;-80
2023/03/09 05:10:45;;;;;;;;;2.00;2.00;;;;;14.29;100.00;99584.50;4995336;28;46269;-81
2023/03/09 05:13:10;;;;;;;;;7.33;1.67;;;;;14.32;100.00;99586.81;4994141;28;45354;-80
2023/03/09 05:15:40;;;;;;;;;5.00;2.67;;;;;14.33;100.00;99599.44;4985064;28;45299;-80
2023/03/09 05:18:07;;;;;;;;;4.67;4.67;;;;;14.49;100.00;99598.31;4995297;28;45717;-79
2023/03/09 05:20:32;;;;;;;;;1.67;1.67;;;;;14.50;100.00;99600.84;4987202;28;45390;-78
2023/03/09 05:22:58;;;;;;;;;10.33;4.00;;;;;14.49;100.00;99607.34;4996059;28;45304;-79
2023/03/09 05:25:24;;;;;;;;;6.00;3.00;;;;;14.28;100.00;99591.00;4993425;28;45467;-80
2023/03/09 05:27:49;;;;;;;;;0.33;0.33;;;;;14.02;100.00;99592.53;5026173;28;45284;-79
2023/03/09 05:30:15;;;;;;;;;3.67;1.00;;;;;14.23;100.00;99582.56;5002638;28;46949;-80
2023/03/09 05:32:41;;;;;;;;;5.33;2.00;;;;;14.31;100.00;99590.63;5017969;28;45812;-77
2023/03/09 05:35:07;;;;;;;;;9.00;2.00;;;;;14.37;100.00;99589.81;4987691;28;45402;-79
2023/03/09 05:37:33;;;;;;;;;6.00;3.00;;;;;14.34;100.00;99587.47;5018331;28;45633;-80
2023/03/09 05:39:58;;;;;;;;;9.67;2.00;;;;;14.43;100.00;99594.50;4994001;28;45441;-84
2023/03/09 05:42:23;;;;;;;;;2.00;1.00;;;;;14.43;100.00;99599.97;4986472;28;45380;-78
2023/03/09 05:44:49;;;;;;;;;7.33;4.33;;;;;14.34;100.00;99607.44;4983731;28;45438;-77
2023/03/09 05:47:14;;;;;;;;;4.67;3.00;;;;;14.50;100.00;99606.31;4984060;28;45407;-80
2023/03/09 05:49:40;;;;;;;;;10.33;2.00;;;;;14.51;100.00;99601.69;4981611;28;48175;-77
2023/03/09 05:52:05;;;;;;;;;6.00;3.00;;;;;14.48;100.00;99605.66;4983562;28;45543;-78
2023/03/09 05:54:31;;;;;;;;;5.33;2.33;;;;;14.40;100.00;99579.34;4981379;28;45293;-79
2023/03/09 05:56:56;;;;;;;;;3.33;1.67;;;;;14.43;100.00;99607.31;5002197;28;45325;-78
2023/03/09 05:59:22;;;;;;;;;5.33;4.33;;;;;14.34;100.00;99620.25;5013254;28;48345;-77
2023/03/09 06:01:48;;;;;;;;;5.33;2.00;;;;;14.33;100.00;99621.28;4997874;28;45311;-80
2023/03/09 06:04:13;;;;;;;;;0.33;0.33;;;;;14.44;100.00;99625.41;4982428;28;45447;-79
2023/03/09 06:06:38;;;;;;;;;7.67;4.00;;;;;14.35;100.00;99632.88;4999165;28;45534;-81
2023/03/09 06:09:04;;;;;;;;;3.00;3.00;;;;;14.36;100.00;99626.38;4983255;28;45515;-79
2023/03/09 06:11:29;;;;;;;;;2.33;2.33;;;;;14.41;100.00;99645.78;4983182;28;49566;-79
2023/03/09 06:13:55;;;;;;;;;3.67;3.33;;;;;14.21;100.00;99628.38;4983322;28;45572;-80
2023/03/09 06:16:20;;;;;;;;;2.00;2.00;;;;;14.27;100.00;99649.41;4980508;28;45607;-78
2023/03/09 06:18:46;;;;;;;;;3.00;2.00;;;;;14.25;100.00;99626.91;4989384;28;47591;-79
2023/03/09 06:21:13;;;;;;;;;2.00;2.00;;;;;14.29;100.00;99642.72;4982299;28;45378;-78
2023/03/09 06:23:39;;;;;;;;;4.00;2.00;;;;;14.26;100.00;99651.31;4983114;28;45222;-79
2023/03/09 06:26:07;;;;;;;;;2.67;2.00;;;;;14.12;100.00;99657.72;4997786;28;45460;-78
2023/03/09 06:28:33;;;;;;;;;2.00;2.00;;;;;14.19;100.00;99638.63;4982935;28;46392;-78
2023/03/09 06:30:58;;;;;;;;;7.00;1.33;;;;;14.33;100.00;99660.41;4982376;28;45300;-79
2023/03/09 06:33:23;;;;;;;;;2.00;1.00;;;;;14.38;100.00;99668.06;4981499;28;45335;-79
2023/03/09 06:35:49;;;;;;;;;5.00;2.00;;;;;14.23;100.00;99670.00;4981640;28;45455;-79
2023/03/09 06:38:14;;;;;;;;;3.00;3.00;;;;;14.31;100.00;99653.47;4982288;28;46787;-78
2023/03/09 06:40:39;;;;;;;;;3.00;3.00;;;;;14.43;100.00;99676.50;4980959;28;45405;-78
2023/03/09 06:43:05;;;;;;;;;4.00;1.33;;;;;14.48;100.00;99667.69;4982402;28;45202;-79
2023/03/09 06:45:30;;;;;;;;;4.33;4.00;;;;;14.50;100.00;99655.50;4981451;28;45516;-79
2023/03/09 06:47:57;;;;;;;;;5.00;2.67;;;;;14.65;100.00;99678.13;5013420;28;45607;-80
2023/03/09 06:50:24;;;;;;;;;3.67;3.00;;;;;14.64;100.00;99670.09;4982069;28;45451;-79
2023/03/09 06:52:50;;;;;;;;;4.00;2.00;;;;;14.79;100.00;99688.09;4980419;28;45378;-78
2023/03/09 06:55:15;;;;;;;;;5.00;3.00;;;;;14.77;100.00;99681.13;4980252;28;45367;-77
2023/03/09 06:57:41;;;;;;;;;3.67;2.00;;;;;14.75;100.00;99675.88;4993996;28;46051;-79
2023/03/09 07:00:09;;;;;;;;;7.00;2.33;;;;;14.87;100.00;99691.69;4980927;28;45443;-78
2023/03/09 07:02:34;;;;;;;;;3.00;3.00;;;;;14.92;100.00;99697.41;4994172;28;45396;-79
2023/03/09 07:04:59;;;;;;;;;7.00;3.00;;;;;14.94;100.00;99696.16;4996576;28;45525;-79
2023/03/09 07:07:25;;;;;;;;;6.67;3.67;;;;;14.97;100.00;99692.19;5012908;28;47346;-78
2023/03/09 07:09:50;;;;;;;;;5.00;3.00;;;;;14.86;100.00;99704.53;5013248;28;45617;-79
2023/03/09 07:12:16;;;;;;;;;4.00;4.00;;;;;14.79;100.00;99695.44;4982291;28;45405;-79
2023/03/09 07:14:41;;;;;;;;;3.00;3.00;;;;;14.66;100.00;99687.16;4982014;28;45432;-80
2023/03/09 07:17:12;;;;;;;;;4.00;3.00;;;;;14.93;100.00;99712.75;4982459;28;45368;-79
2023/03/09 07:19:37;;;;;;;;;5.00;4.00;;;;;15.02;100.00;99703.34;4978625;28;45278;-80
2023/03/09 07:22:02;;;;;;;;;4.00;4.00;;;;;15.02;100.00;99715.13;4982519;28;45387;-79
2023/03/09 07:24:28;;;;;;;;;5.33;2.67;;;;;14.91;100.00;99707.50;4980775;28;45240;-79
2023/03/09 07:26:53;;;;;;;;;4.33;3.00;;;;;15.13;100.00;99714.56;4992821;28;48344;-81
2023/03/09 07:29:19;;;;;;;;;7.67;3.00;;;;;15.07;100.00;99703.59;4978895;28;45487;-81
2023/03/09 07:31:45;;;;;;;;;5.67;3.00;;;;;15.24;100.00;99728.72;4979301;28;45394;-80
2023/03/09 07:34:10;;;;;;;;;3.67;3.00;;;;;15.24;100.00;99724.09;4995971;28;45526;-80
2023/03/09 07:36:36;;;;;;;;;11.33;5.67;;;;;15.24;100.00;99724.09;4981060;28;45389;-79
2023/03/09 07:39:01;;;;;;;;;6.00;3.33;;;;;15.32;100.00;99737.59;4980793;28;45415;-80
2023/03/09 07:41:27;;;;;;;;;7.00;4.00;;;;;15.40;100.00;99721.00;4979379;28;45514;-79
2023/03/09 07:43:52;;;;;;;;;5.00;4.00;;;;;15.47;100.00;99745.66;4982934;28;45337;-80
2023/03/09 07:46:17;;;;;;;;;6.33;5.67;;;;;15.50;100.00;99746.09;4993876;28;46746;-79
2023/03/09 07:48:44;;;;;;;;;8.33;5.00;;;;;15.47;100.00;99757.47;4981344;28;45386;-78
2023/03/09 07:51:10;;;;;;;;;5.33;5.00;;;;;15.47;100.00;99751.16;4980678;28;45158;-79
2023/03/09 07:53:39;;;;;;;;;5.33;4.33;;;;;15.76;100.00;99750.88;4982035;28;45438;-79
2023/03/09 07:56:05;;;;;;;;;11.00;6.00;;;;;15.63;100.00;99734.41;4984183;28;45391;-79
2023/03/09 07:58:36;;;;;;;;;6.67;5.33;;;;;15.82;100.00;99758.25;4985698;28;45409;-78
2023/03/09 08:01:02;;;;;;;;;6.33;5.00;;;;;15.86;100.00;99751.28;4984599;28;45228;-81
2023/03/09 08:03:28;;;;;;;;;7.00;5.67;;;;;15.76;100.00;99764.56;4986017;28;45310;-81
2023/03/09 08:05:55;;;;;;;;;5.67;4.67;;;;;15.85;100.00;99737.84;4982749;28;47003;-80
2023/03/09 08:08:27;;;;;;;;;7.33;4.00;;;;;15.93;100.00;99749.41;5012145;28;45389;-79
2023/03/09 08:10:54;;;;;;;;;9.67;5.00;;;;;16.02;100.00;99761.03;4978715;28;45371;-80
2023/03/09 08:13:21;;;;;;;;;5.67;5.00;;;;;16.26;100.00;99774.16;4983413;28;45445;-80
2023/03/09 08:15:47;;;;;;;;;2.67;1.00;;;;;16.08;100.00;99760.19;4983496;28;45467;-79
2023/03/09 08:18:13;;;;;;;;;12.33;5.67;;;;;16.24;100.00;99764.44;4982557;28;45437;-80
2023/03/09 08:20:39;;;;;;;;;7.67;6.00;;;;;16.42;100.00;99767.44;4984133;28;45387;-80
2023/03/09 08:23:04;;;;;;;;;7.00;6.00;;;;;16.33;100.00;99769.53;5016517;28;45407;-80
2023/03/09 08:25:30;;;;;;;;;7.67;4.67;;;;;16.47;100.00;99758.56;4984105;28;46471;-80
2023/03/09 08:27:56;;;;;;;;;7.33;4.00;;;;;16.35;100.00;99767.41;4984851;28;45375;-79
2023/03/09 08:30:22;;;;;;;;;5.67;2.00;;;;;16.50;100.00;99769.13;4983526;28;45564;-79
2023/03/09 08:32:49;;;;;;;;;9.00;5.00;;;;;16.51;100.00;99768.06;4985267;28;45663;-78
2023/03/09 08:35:16;;;;;;;;;11.00;5.00;;;;;16.49;100.00;99786.63;4976920;28;47320;-80
2023/03/09 08:37:41;;;;;;;;;7.67;3.67;;;;;16.57;100.00;99773.56;4984947;28;45350;-79
2023/03/09 08:40:09;;;;;;;;;9.67;7.00;;;;;16.50;100.00;99763.63;4984015;28;45344;-79
2023/03/09 08:42:34;;;;;;;;;6.00;4.33;;;;;16.65;100.00;99773.38;5016856;28;45447;-80
2023/03/09 08:45:00;;;;;;;;;4.67;2.00;;;;;16.72;100.00;99773.38;4981903;28;47235;-83
2023/03/09 08:47:26;;;;;;;;;10.67;7.67;;;;;16.64;100.00;99765.34;4985061;28;45386;-79
2023/03/09 08:49:51;;;;;;;;;5.00;4.00;;;;;16.79;100.00;99774.22;5015562;28;45412;-79
2023/03/09 08:52:16;;;;;;;;;12.33;5.00;;;;;16.91;100.00;99780.72;4984684;28;45356;-80
2023/03/09 08:54:42;;;;;;;;;8.00;3.00;;;;;16.69;100.00;99776.53;4984246;28;46030;-80
2023/03/09 08:57:08;;;;;;;;;11.67;6.00;;;;;16.96;100.00;99778.19;4985466;28;45391;-80
2023/03/09 08:59:34;;;;;;;;;9.33;5.33;;;;;16.98;100.00;99781.56;5017519;28;45583;-84
2023/03/09 09:01:59;;;;;;;;;8.33;3.67;;;;;17.07;100.00;99773.94;4993664;28;45519;-83
2023/03/09 09:04:25;;;;;;;;;6.67;5.33;;;;;17.19;100.00;99780.47;4985189;28;47695;-83
2023/03/09 09:06:50;;;;;;;;;6.67;6.00;;;;;17.06;100.00;99781.34;4979831;28;45800;-83
2023/03/09 09:09:17;;;;;;;;;4.00;4.00;;;;;17.01;100.00;99761.94;4987035;28;45349;-81
2023/03/09 09:11:42;;;;;;;;;10.33;7.33;;;;;17.00;100.00;99787.69;4993064;28;45249;-81
2023/03/09 09:14:07;;;;;;;;;5.67;4.00;;;;;17.06;100.00;99781.34;4991854;28;45364;-80
2023/03/09 09:16:33;;;;;;;;;14.33;11.67;;;;;17.31;100.00;99783.41;4996047;28;45360;-82
2023/03/09 09:18:58;;;;;;;;;11.33;5.00;;;;;17.31;100.00;99773.28;4992518;28;45149;-80
2023/03/09 09:21:24;;;;;;;;;5.67;4.00;;;;;17.43;100.00;99781.66;4993597;28;45328;-81
2023/03/09 09:23:50;;;;;;;;;8.00;6.00;;;;;17.19;100.00;99790.59;4999717;28;45426;-80
2023/03/09 09:26:16;;;;;;;;;8.67;6.33;;;;;17.37;100.00;99788.03;4998671;28;44786;-81
2023/03/09 09:28:43;;;;;;;;;8.33;5.00;;;;;17.25;100.00;99760.38;4998218;28;45434;-79
2023/03/09 09:31:12;;;;;;;;;5.33;5.33;;;;;17.24;100.00;99764.19;5001566;28;45825;-81
2023/03/09 09:33:38;;;;;;;;;9.00;6.33;;;;;17.23;100.00;99764.41;5000592;28;45316;-80
2023/03/09 09:36:09;;;;;;;;;11.67;6.00;;;;;17.54;100.00;99761.75;5008397;28;45189;-80
2023/03/09 09:38:34;;;;;;;;;8.33;5.00;;;;;17.68;100.00;99757.94;5003996;28;44710;-80
2023/03/09 09:41:06;;;;;;;;;11.00;2.33;;;;;17.75;100.00;99764.22;5012090;28;44869;-79
2023/03/09 09:43:31;;;;;;;;;7.67;6.67;;;;;17.96;100.00;99757.59;4998128;28;46256;-79
2023/03/09 09:45:59;;;;;;;;;7.67;5.00;;;;;18.15;100.00;99759.38;5007337;28;45239;-80
2023/03/09 09:48:27;;;;;;;;;11.67;5.67;;;;;18.13;100.00;99761.47;5009046;28;45275;-79
2023/03/09 09:51:16;;;;;;;;;7.33;5.33;;;;;18.28;100.00;99763.91;4969520;28;45567;-81
2023/03/09 09:54:04;;;;;;;;;7.33;3.00;;;;;18.39;100.00;99759.63;5004613;28;48093;-80
2023/03/09 09:56:49;;;;;;;;;10.33;7.33;;;;;18.68;100.00;99753.50;4989562;28;45368;-82
2023/03/09 09:59:35;;;;;;;;;10.67;9.00;;;;;18.64;100.00;99747.59;4987126;28;45344;-79
2023/03/09 10:02:09;;;;;;;;;11.00;5.33;;;;;18.83;100.00;99753.16;4992004;28;45233;-80
2023/03/09 10:04:45;;;;;;;;;8.67;5.33;;;;;18.32;100.00;99759.69;5014215;28;47787;-79
2023/03/09 10:07:16;;;;;;;;;6.00;4.33;;;;;18.47;100.00;99751.94;4988126;28;45356;-78
2023/03/09 10:09:46;;;;;;;;;6.00;6.00;;;;;18.34;100.00;99738.28;5008479;28;45292;-79
2023/03/09 10:12:16;;;;;;;;;7.67;4.67;;;;;18.63;100.00;99756.06;4991313;28;45264;-79
2023/03/09 10:14:50;;;;;;;;;7.00;5.33;;;;;18.70;100.00;99753.28;4989446;28;46064;-78
2023/03/09 10:17:27;;;;;;;;;6.00;3.67;;;;;18.45;100.00;99743.06;4995165;28;45165;-78
2023/03/09 10:19:57;;;;;;;;;16.67;6.33;;;;;18.16;100.00;99754.72;4985081;28;45403;-79
2023/03/09 10:22:24;;;;;;;;;6.33;4.67;;;;;17.95;100.00;99750.41;5013388;28;45585;-80
2023/03/09 10:24:55;;;;;;;;;6.00;3.00;;;;;18.29;100.00;99749.97;5002736;28;47603;-80
2023/03/09 10:27:35;;;;;;;;;11.00;6.00;;;;;18.50;100.00;99747.88;4988568;28;45478;-80
2023/03/09 10:30:10;;;;;;;;;5.00;3.33;;;;;18.72;100.00;99754.72;4985873;28;45161;-80
2023/03/09 10:33:06;;;;;;;;;7.67;5.00;;;;;18.66;100.00;99750.97;4984740;28;45997;-79
2023/03/09 10:35:40;;;;;;;;;5.67;3.33;;;;;18.44;100.00;99752.38;4979331;28;45274;-81
2023/03/09 10:38:13;;;;;;;;;11.67;7.00;;;;;18.77;100.00;99732.91;5016723;28;45393;-80
2023/03/09 10:40:49;;;;;;;;;4.67;3.00;;;;;18.87;100.00;99719.44;4984030;28;45260;-81
2023/03/09 10:43:29;;;;;;;;;7.00;5.33;;;;;18.97;100.00;99736.28;4986188;28;45181;-81
2023/03/09 10:46:07;;;;;;;;;3.33;3.33;;;;;19.06;100.00;99723.06;4985163;28;48176;-81
2023/03/09 10:48:32;;;;;;;;;9.33;6.00;;;;;18.93;100.00;99728.69;4986454;28;45399;-82
2023/03/09 10:51:03;;;;;;;;;5.33;4.00;;;;;19.16;100.00;99728.03;4985736;28;45826;-80
2023/03/09 10:53:32;;;;;;;;;4.33;3.00;;;;;18.97;100.00;99729.94;4996875;28;45530;-78
2023/03/09 10:56:12;;;;;;;;;9.00;6.67;;;;;18.91;100.00;99730.84;4983970;28;45491;-81
2023/03/09 10:58:37;;;;;;;;;9.33;5.00;;;;;19.04;100.00;99733.47;4980139;28;45298;-80
2023/03/09 11:01:11;;;;;;;;;7.33;5.00;;;;;19.06;100.00;99736.84;4981243;28;45309;-81
2023/03/09 11:03:39;;;;;;;;;3.00;3.00;;;;;18.68;100.00;99723.22;4990090;28;44980;-81
2023/03/09 11:06:22;;;;;;;;;5.00;3.00;;;;;18.55;100.00;99709.56;5004460;28;47550;-81
2023/03/09 11:09:32;;;;;;;;;5.33;5.33;;;;;18.33;100.00;99722.88;4992870;28;45316;-82
2023/03/09 11:12:19;;;;;;;;;9.67;4.00;;;;;18.91;100.00;99719.84;4984610;28;45352;-78
2023/03/09 11:14:56;;;;;;;;;13.00;9.00;;;;;18.81;100.00;99719.50;4988052;28;45254;-81
2023/03/09 11:17:27;;;;;;;;;6.00;5.00;;;;;18.64;100.00;99716.47;5017458;28;46984;-81
2023/03/09 11:20:12;;;;;;;;;7.33;6.00;;;;;18.92;100.00;99711.31;4980971;28;46400;-81
2023/03/09 11:22:40;;;;;;;;;6.67;5.00;;;;;19.27;100.00;99724.53;5016022;28;45403;-82
2023/03/09 11:25:41;;;;;;;;;9.00;6.67;;;;;19.45;100.00;99719.84;4983106;28;45330;-82
2023/03/09 11:28:44;;;;;;;;;7.00;4.67;;;;;19.62;100.00;99730.25;4980589;28;46409;-82